createdAt,value
2023-03-23T15:58:40.094Z,2.70
2023-03-23T16:01:22.403Z,1.98
2023-03-23T16:03:59.255Z,2.30
2023-03-23T16:06:28.921Z,1.38
2023-03-23T16:08:56.552Z,1.38
2023-03-23T16:11:26.068Z,1.55
2023-03-23T16:13:53.040Z,1.95
2023-03-23T16:16:43.381Z,2.25
2023-03-23T16:19:15.017Z,1.95
2023-03-23T16:21:43.032Z,1.85
2023-03-23T16:24:10.475Z,2.35
2023-03-23T16:26:40.388Z,2.30
2023-03-23T16:29:17.256Z,2.20
2023-03-23T16:31:51.625Z,2.50
2023-03-23T16:34:18.540Z,1.90
2023-03-23T16:36:45.385Z,1.90
2023-03-23T16:39:12.861Z,2.10
2023-03-23T16:41:41.150Z,2.33
2023-03-23T16:44:07.998Z,5.15
2023-03-23T16:46:34.981Z,7.25
2023-03-23T16:49:01.853Z,8.35
2023-03-23T16:51:28.662Z,10.25
2023-03-23T16:53:55.491Z,14.02
2023-03-23T16:56:22.353Z,12.80
2023-03-23T16:58:49.638Z,15.98
2023-03-23T17:01:16.575Z,13.95
2023-03-23T17:03:44.099Z,12.27
2023-03-23T17:06:11.108Z,9.73
2023-03-23T17:08:38.030Z,11.38
2023-03-23T17:11:05.849Z,16.52
2023-03-23T17:13:34.653Z,14.25
2023-03-23T17:16:01.636Z,30.80
2023-03-23T17:18:29.251Z,24.35
2023-03-23T17:20:56.617Z,19.35
2023-03-23T17:23:24.431Z,23.17
2023-03-23T17:25:51.753Z,11.52
2023-03-23T17:28:20.432Z,10.80
2023-03-23T17:30:48.562Z,10.55
2023-03-23T17:33:15.372Z,9.98
2023-03-23T17:35:43.354Z,10.13
2023-03-23T17:38:10.810Z,9.23
2023-03-23T17:40:37.702Z,9.45
2023-03-23T17:43:05.113Z,10.90
2023-03-23T17:45:32.145Z,11.52
2023-03-23T17:47:59.100Z,26.40
2023-03-23T17:50:26.054Z,15.80
2023-03-23T17:52:52.931Z,19.77
2023-03-23T17:55:19.880Z,102.80
2023-03-23T17:57:46.774Z,37.72
2023-03-23T18:00:14.531Z,12.27
2023-03-23T18:02:42.060Z,13.38
2023-03-23T18:05:09.881Z,21.80
2023-03-23T18:07:37.670Z,29.63
2023-03-23T18:10:11.974Z,17.00
2023-03-23T18:12:42.373Z,13.48
2023-03-23T18:15:10.454Z,15.00
2023-03-23T18:17:38.045Z,14.35
2023-03-23T18:20:07.352Z,14.40
2023-03-23T18:22:34.761Z,17.67
2023-03-23T18:25:02.793Z,16.50
2023-03-23T18:27:30.062Z,15.20
2023-03-23T18:29:57.270Z,14.63
2023-03-23T18:32:24.170Z,13.13
2023-03-23T18:34:51.044Z,16.65
2023-03-23T18:37:18.288Z,23.63
2023-03-23T18:39:45.352Z,15.38
2023-03-23T18:42:12.400Z,17.67
2023-03-23T18:44:39.322Z,16.25
2023-03-23T18:47:06.151Z,30.35
2023-03-23T18:49:33.582Z,30.42
2023-03-23T18:52:01.097Z,28.63
2023-03-23T18:54:29.191Z,28.95
2023-03-23T18:57:00.411Z,26.02
2023-03-23T18:59:30.637Z,24.65
2023-03-23T19:02:13.212Z,28.27
2023-03-23T19:04:41.136Z,27.70
2023-03-23T19:07:08.193Z,24.88
2023-03-23T19:09:35.229Z,24.52
2023-03-23T19:12:01.997Z,26.45
2023-03-23T19:14:29.269Z,28.50
2023-03-23T19:16:56.250Z,27.88
2023-03-23T19:19:24.934Z,23.17
2023-03-23T19:24:21.278Z,21.63
2023-03-23T19:26:48.722Z,25.15
2023-03-23T19:29:27.171Z,27.30
2023-03-23T19:31:58.296Z,25.92
2023-03-23T19:34:27.528Z,33.10
2023-03-23T19:37:04.199Z,25.67
2023-03-23T19:39:34.301Z,28.65
2023-03-23T19:42:01.854Z,27.35
2023-03-23T19:44:29.535Z,27.63
2023-03-23T19:46:56.792Z,26.98
2023-03-23T19:49:25.051Z,27.52
2023-03-23T19:52:06.095Z,28.33
2023-03-23T19:54:37.527Z,27.92
2023-03-23T19:57:06.200Z,32.95
2023-03-23T19:59:33.975Z,30.67
2023-03-23T20:02:01.398Z,31.35
2023-03-23T20:04:29.168Z,26.85
2023-03-23T20:06:57.095Z,22.65
2023-03-23T20:09:25.322Z,21.52
2023-03-23T20:11:53.547Z,20.92
2023-03-23T20:14:21.066Z,20.90
2023-03-23T20:16:48.772Z,20.77
2023-03-23T20:19:16.499Z,20.98
2023-03-23T20:21:43.616Z,18.90
2023-03-23T20:24:10.436Z,16.30
2023-03-23T20:26:40.589Z,16.98
2023-03-23T20:29:08.711Z,14.77
2023-03-23T20:31:38.566Z,13.82
2023-03-23T20:34:11.180Z,13.32
2023-03-23T20:36:42.037Z,12.77
2023-03-23T20:39:21.196Z,14.23
2023-03-23T20:41:50.955Z,14.60
2023-03-23T20:44:23.187Z,17.40
2023-03-23T20:46:51.634Z,16.48
2023-03-23T20:49:20.730Z,20.77
2023-03-23T20:51:48.399Z,14.75
2023-03-23T20:54:16.479Z,13.43
2023-03-23T20:56:44.353Z,12.70
2023-03-23T20:59:12.428Z,11.10
2023-03-23T21:01:40.003Z,12.23
2023-03-23T21:04:14.982Z,9.05
2023-03-23T21:06:43.102Z,8.00
2023-03-23T21:09:10.460Z,8.27
2023-03-23T21:11:37.812Z,9.40
2023-03-23T21:14:06.080Z,7.95
2023-03-23T21:16:33.151Z,7.60
2023-03-23T21:19:00.623Z,6.88
2023-03-23T21:21:28.298Z,6.20
2023-03-23T21:23:57.575Z,5.95
2023-03-23T21:26:27.898Z,6.35
2023-03-23T21:28:59.715Z,5.72
2023-03-23T21:31:30.739Z,6.82
2023-03-23T21:34:01.339Z,5.65
2023-03-23T21:36:28.787Z,6.72
2023-03-23T21:38:56.398Z,6.25
2023-03-23T21:41:23.734Z,6.10
2023-03-23T21:43:50.685Z,6.28
2023-03-23T21:46:18.251Z,5.97
2023-03-23T21:48:51.658Z,5.60
2023-03-23T21:51:27.315Z,5.45
2023-03-23T21:53:55.441Z,4.82
2023-03-23T21:56:25.005Z,5.35
2023-03-23T21:58:52.397Z,5.50
2023-03-23T22:01:19.920Z,5.43
2023-03-23T22:03:47.621Z,5.78
2023-03-23T22:06:23.412Z,5.40
2023-03-23T22:08:51.456Z,4.53
2023-03-23T22:11:27.504Z,5.50
2023-03-23T22:13:56.105Z,5.05
2023-03-23T22:16:23.973Z,5.63
2023-03-23T22:18:52.603Z,6.38
2023-03-23T22:21:22.313Z,6.40
2023-03-23T22:23:49.863Z,12.05
2023-03-23T22:26:17.192Z,17.08
2023-03-23T22:28:46.465Z,26.27
2023-03-23T22:31:23.621Z,23.92
2023-03-23T22:33:55.006Z,18.30
2023-03-23T22:36:27.508Z,13.65
2023-03-23T22:38:56.325Z,14.07
2023-03-23T22:41:27.100Z,15.05
2023-03-23T22:43:54.464Z,14.88
2023-03-23T22:46:21.998Z,5.45
2023-03-23T22:48:49.021Z,11.60
2023-03-23T22:51:17.223Z,11.88
2023-03-23T22:53:45.004Z,5.07
2023-03-23T22:56:12.913Z,4.85
2023-03-23T22:58:40.701Z,4.82
2023-03-23T23:01:14.132Z,4.40
2023-03-23T23:03:41.613Z,4.70
2023-03-23T23:06:10.142Z,4.70
2023-03-23T23:08:37.473Z,3.88
2023-03-23T23:11:05.364Z,4.10
2023-03-23T23:13:33.451Z,4.57
2023-03-23T23:16:01.550Z,4.30
2023-03-23T23:18:29.155Z,3.90
2023-03-23T23:20:59.526Z,4.90
2023-03-23T23:23:28.099Z,3.83
2023-03-23T23:25:55.482Z,3.75
2023-03-23T23:28:22.946Z,4.32
2023-03-23T23:30:51.491Z,2.80
2023-03-23T23:33:19.240Z,3.60
2023-03-23T23:35:46.696Z,2.75
2023-03-23T23:38:14.881Z,3.15
2023-03-23T23:40:43.218Z,2.88
2023-03-23T23:43:15.805Z,3.17
2023-03-23T23:45:43.517Z,2.45
2023-03-23T23:48:11.492Z,2.85
2023-03-23T23:50:38.472Z,2.55
2023-03-23T23:53:05.689Z,3.00
2023-03-23T23:55:32.834Z,2.38
2023-03-23T23:57:59.622Z,3.15
